createdAt,value
2023-05-10T00:01:52.539Z,5.13
2023-05-10T00:04:19.218Z,5.15
2023-05-10T00:06:46.071Z,5.16
2023-05-10T00:09:12.804Z,5.17
2023-05-10T00:11:39.405Z,5.19
2023-05-10T00:14:06.160Z,5.21
2023-05-10T00:16:32.881Z,5.24
2023-05-10T00:18:59.665Z,5.25
2023-05-10T00:21:26.441Z,5.26
2023-05-10T00:23:53.115Z,5.27
2023-05-10T00:26:19.751Z,5.28
2023-05-10T00:28:46.918Z,5.29
2023-05-10T00:31:14.016Z,5.29
2023-05-10T00:33:40.737Z,5.30
2023-05-10T00:36:08.696Z,5.31
2023-05-10T00:38:35.439Z,5.32
2023-05-10T00:41:03.743Z,5.32
2023-05-10T00:43:31.278Z,5.31
2023-05-10T00:45:58.106Z,5.32
2023-05-10T00:48:24.733Z,5.31
2023-05-10T00:50:51.302Z,5.31
2023-05-10T00:53:19.044Z,5.31
2023-05-10T00:57:35.071Z,5.31
2023-05-10T01:00:02.915Z,5.28
2023-05-10T01:02:29.683Z,5.26
2023-05-10T01:04:57.270Z,5.25
2023-05-10T01:07:24.402Z,5.23
2023-05-10T01:09:51.084Z,5.20
2023-05-10T01:12:17.693Z,5.18
2023-05-10T01:14:44.380Z,5.15
2023-05-10T01:17:12.132Z,5.13
2023-05-10T01:19:39.149Z,5.09
2023-05-10T01:22:17.708Z,5.06
2023-05-10T01:24:59.578Z,5.02
2023-05-10T01:27:49.133Z,4.99
2023-05-10T01:30:42.179Z,4.93
2023-05-10T01:33:37.510Z,4.88
2023-05-10T01:36:17.416Z,4.82
2023-05-10T01:38:47.229Z,4.77
2023-05-10T01:41:26.826Z,4.71
2023-05-10T01:44:30.242Z,4.65
2023-05-10T01:47:06.182Z,4.59
2023-05-10T01:49:35.805Z,4.53
2023-05-10T01:52:08.439Z,4.46
2023-05-10T01:54:35.061Z,4.43
2023-05-10T01:57:04.930Z,4.38
2023-05-10T01:59:32.830Z,4.33
2023-05-10T02:02:00.057Z,4.27
2023-05-10T02:04:26.993Z,4.19
2023-05-10T02:06:54.134Z,4.11
2023-05-10T02:09:21.295Z,4.04
2023-05-10T02:11:49.065Z,3.98
2023-05-10T02:14:16.089Z,3.92
2023-05-10T02:16:42.919Z,3.85
2023-05-10T02:19:10.012Z,3.80
2023-05-10T02:21:36.893Z,3.74
2023-05-10T02:24:03.893Z,3.67
2023-05-10T02:26:30.832Z,3.61
2023-05-10T02:28:57.487Z,3.55
2023-05-10T02:31:24.181Z,3.50
2023-05-10T02:33:50.964Z,3.44
2023-05-10T02:36:18.432Z,3.40
2023-05-10T02:38:45.520Z,3.35
2023-05-10T02:41:12.140Z,3.31
2023-05-10T02:43:38.715Z,3.28
2023-05-10T02:46:05.583Z,3.24
2023-05-10T02:48:32.282Z,3.23
2023-05-10T02:51:03.719Z,3.21
2023-05-10T02:53:35.513Z,3.21
2023-05-10T02:56:05.324Z,3.20
2023-05-10T02:58:32.315Z,3.21
2023-05-10T03:00:58.960Z,3.25
2023-05-10T03:03:25.586Z,3.26
2023-05-10T03:05:56.770Z,3.26
2023-05-10T03:08:24.375Z,3.25
2023-05-10T03:11:07.216Z,3.25
2023-05-10T03:13:38.959Z,3.25
2023-05-10T03:16:26.388Z,3.25
2023-05-10T03:19:01.297Z,3.26
2023-05-10T03:21:29.696Z,3.28
2023-05-10T03:24:09.518Z,3.29
2023-05-10T03:26:36.947Z,3.31
2023-05-10T03:29:08.607Z,3.33
2023-05-10T03:31:35.386Z,3.33
2023-05-10T03:34:02.369Z,3.34
2023-05-10T03:36:29.225Z,3.36
2023-05-10T03:38:56.017Z,3.38
2023-05-10T03:41:22.863Z,3.39
2023-05-10T03:43:49.551Z,3.40
2023-05-10T03:46:16.313Z,3.43
2023-05-10T03:48:43.157Z,3.46
2023-05-10T03:51:09.828Z,3.51
2023-05-10T03:53:36.745Z,3.55
2023-05-10T03:56:03.453Z,3.60
2023-05-10T03:58:30.287Z,3.66
2023-05-10T04:00:56.981Z,3.73
2023-05-10T04:03:24.215Z,3.93
2023-05-10T04:05:59.736Z,4.49
2023-05-10T04:08:27.499Z,5.28
2023-05-10T04:10:54.407Z,6.08
2023-05-10T04:13:21.793Z,6.91
2023-05-10T04:15:48.508Z,7.72
2023-05-10T04:18:15.136Z,8.48
2023-05-10T04:20:41.746Z,9.30
2023-05-10T04:23:08.367Z,10.07
2023-05-10T04:25:36.497Z,10.78
2023-05-10T04:28:03.249Z,11.48
2023-05-10T04:30:30.362Z,12.15
2023-05-10T04:32:57.095Z,12.78
2023-05-10T04:35:23.856Z,13.39
2023-05-10T04:37:50.725Z,14.07
2023-05-10T04:40:17.517Z,14.66
2023-05-10T04:42:44.763Z,15.19
2023-05-10T04:45:11.720Z,15.71
2023-05-10T04:47:38.407Z,16.23
2023-05-10T04:50:06.310Z,16.79
2023-05-10T04:52:33.080Z,17.35
2023-05-10T04:54:59.699Z,17.87
2023-05-10T04:57:26.271Z,18.28
2023-05-10T04:59:53.077Z,18.67
2023-05-10T05:02:19.805Z,19.12
2023-05-10T05:04:46.451Z,19.47
2023-05-10T05:07:13.114Z,19.79
2023-05-10T05:09:39.737Z,20.19
2023-05-10T05:12:06.711Z,20.61
2023-05-10T05:14:33.320Z,20.90
2023-05-10T05:17:00.032Z,21.19
2023-05-10T05:19:26.652Z,21.20
2023-05-10T05:21:53.260Z,21.06
2023-05-10T05:24:19.973Z,21.00
2023-05-10T05:26:47.320Z,21.00
2023-05-10T05:29:14.051Z,20.97
2023-05-10T05:31:40.805Z,20.83
2023-05-10T05:34:07.455Z,20.59
2023-05-10T05:36:39.435Z,20.27
2023-05-10T05:39:06.124Z,20.07
2023-05-10T05:41:32.739Z,19.94
2023-05-10T05:43:59.714Z,20.19
2023-05-10T05:46:26.519Z,20.63
2023-05-10T05:48:53.294Z,20.92
2023-05-10T05:51:19.979Z,21.21
2023-05-10T05:53:46.710Z,21.29
2023-05-10T05:56:13.352Z,21.46
2023-05-10T05:58:40.292Z,21.81
2023-05-10T06:01:06.931Z,22.26
2023-05-10T06:03:33.799Z,22.50
2023-05-10T06:06:00.553Z,22.54
2023-05-10T06:08:27.192Z,22.53
2023-05-10T06:10:53.788Z,22.41
2023-05-10T06:13:20.394Z,22.43
2023-05-10T06:15:47.378Z,22.40
2023-05-10T06:18:14.050Z,22.41
2023-05-10T06:20:42.355Z,22.13
2023-05-10T06:23:08.986Z,21.68
2023-05-10T06:25:35.594Z,21.11
2023-05-10T06:28:03.539Z,20.74
2023-05-10T06:30:31.056Z,20.45
2023-05-10T06:32:58.489Z,20.12
2023-05-10T06:35:27.119Z,19.77
2023-05-10T06:37:54.882Z,19.41
2023-05-10T06:40:25.061Z,19.06
2023-05-10T06:42:53.387Z,18.79
2023-05-10T06:45:21.117Z,18.49
2023-05-10T06:47:48.627Z,18.22
2023-05-10T06:50:16.586Z,17.99
2023-05-10T06:52:44.291Z,17.78
2023-05-10T06:55:12.029Z,17.78
2023-05-10T06:57:39.484Z,17.91
2023-05-10T07:00:08.389Z,18.04
2023-05-10T07:02:35.938Z,18.03
2023-05-10T07:05:03.992Z,17.89
2023-05-10T07:07:31.570Z,17.67
2023-05-10T07:09:59.102Z,17.48
2023-05-10T07:12:29.471Z,17.50
2023-05-10T07:14:59.223Z,17.61
2023-05-10T07:17:27.193Z,17.60
2023-05-10T07:22:22.218Z,17.52
2023-05-10T07:24:49.665Z,17.48
2023-05-10T07:27:17.036Z,17.38
2023-05-10T07:29:44.460Z,17.30
2023-05-10T07:32:11.992Z,17.20
2023-05-10T07:34:39.612Z,17.20
2023-05-10T07:37:07.976Z,17.12
2023-05-10T07:39:35.546Z,16.91
2023-05-10T07:42:03.014Z,16.96
2023-05-10T07:44:30.459Z,17.26
2023-05-10T07:46:57.276Z,17.65
2023-05-10T07:49:25.282Z,18.00
2023-05-10T07:51:51.972Z,18.11
2023-05-10T07:54:18.590Z,18.04
2023-05-10T07:56:48.126Z,17.97
2023-05-10T07:59:18.149Z,17.83
2023-05-10T08:01:44.889Z,17.80
2023-05-10T08:04:12.682Z,17.68
2023-05-10T08:06:40.431Z,17.62
2023-05-10T08:09:07.410Z,17.41
2023-05-10T08:11:35.157Z,17.12
2023-05-10T08:14:02.303Z,16.80
2023-05-10T08:16:29.999Z,16.65
2023-05-10T08:18:56.893Z,16.64
2023-05-10T08:21:23.821Z,16.76
2023-05-10T08:23:50.697Z,16.81
2023-05-10T08:26:17.317Z,16.55
2023-05-10T08:28:43.960Z,16.43
2023-05-10T08:31:10.577Z,16.35
2023-05-10T08:33:37.223Z,16.19
2023-05-10T08:36:04.031Z,16.15
2023-05-10T08:38:30.824Z,16.17
2023-05-10T08:40:58.052Z,16.18
2023-05-10T08:43:30.139Z,16.32
2023-05-10T08:45:59.784Z,16.33
2023-05-10T08:48:26.775Z,16.18
2023-05-10T08:50:55.614Z,15.99
2023-05-10T08:53:22.270Z,16.06
2023-05-10T08:55:48.920Z,16.20
2023-05-10T08:58:15.722Z,16.09
2023-05-10T09:00:42.527Z,15.95
2023-05-10T09:03:09.294Z,15.72
2023-05-10T09:05:37.343Z,15.35
2023-05-10T09:08:04.151Z,15.11
2023-05-10T09:10:31.149Z,14.98
2023-05-10T09:12:59.347Z,14.93
2023-05-10T09:15:26.450Z,14.86
2023-05-10T09:17:53.687Z,14.94
2023-05-10T09:20:20.799Z,14.87
2023-05-10T09:22:47.484Z,14.79
2023-05-10T09:25:15.762Z,14.76
2023-05-10T09:27:46.082Z,14.76
2023-05-10T09:30:17.742Z,14.78
2023-05-10T09:32:45.815Z,14.77
2023-05-10T09:35:16.862Z,14.78
2023-05-10T09:37:45.646Z,14.86
2023-05-10T09:40:16.792Z,14.94
2023-05-10T09:42:51.598Z,15.01
2023-05-10T09:45:18.560Z,15.06
2023-05-10T09:47:45.453Z,14.99
2023-05-10T09:50:12.463Z,14.90
2023-05-10T09:52:55.504Z,14.84
2023-05-10T09:55:23.546Z,14.80
2023-05-10T09:57:51.024Z,14.73
2023-05-10T10:00:21.608Z,14.70
2023-05-10T10:02:54.697Z,14.61
2023-05-10T10:05:21.387Z,14.56
2023-05-10T10:07:48.096Z,14.55
2023-05-10T10:10:14.776Z,14.57
2023-05-10T10:12:41.998Z,14.59
2023-05-10T10:15:10.046Z,14.64
2023-05-10T10:17:37.184Z,14.71
2023-05-10T10:20:04.520Z,14.67
2023-05-10T10:22:31.115Z,14.58
2023-05-10T10:24:57.889Z,14.58
2023-05-10T10:27:27.962Z,14.60
2023-05-10T10:30:05.463Z,14.55
2023-05-10T10:32:50.855Z,14.51
2023-05-10T10:35:17.737Z,14.49
2023-05-10T10:37:46.400Z,14.53
2023-05-10T10:40:34.660Z,14.57
2023-05-10T10:43:27.742Z,14.65
2023-05-10T10:46:16.432Z,14.69
2023-05-10T10:48:48.911Z,14.68
2023-05-10T10:51:15.732Z,14.75
2023-05-10T10:53:42.408Z,14.82
2023-05-10T10:56:14.610Z,14.92
2023-05-10T10:58:41.689Z,15.02
2023-05-10T11:01:12.265Z,15.10
2023-05-10T11:03:39.044Z,15.10
2023-05-10T11:06:05.790Z,15.08
2023-05-10T11:08:34.044Z,15.12
2023-05-10T11:11:04.168Z,15.26
2023-05-10T11:13:44.908Z,15.30
2023-05-10T11:16:17.622Z,15.34
2023-05-10T11:19:03.958Z,15.44
2023-05-10T11:21:32.111Z,15.59
2023-05-10T11:23:59.722Z,15.70
2023-05-10T11:26:28.935Z,15.82
2023-05-10T11:29:00.183Z,15.90
2023-05-10T11:31:27.997Z,15.94
2023-05-10T11:33:56.649Z,15.91
2023-05-10T11:36:28.338Z,15.85
2023-05-10T11:38:55.966Z,15.88
2023-05-10T11:41:23.334Z,15.89
2023-05-10T11:43:54.059Z,15.86
2023-05-10T11:46:22.029Z,15.89
2023-05-10T11:48:53.115Z,15.95
2023-05-10T11:51:23.739Z,15.83
2023-05-10T11:53:51.750Z,15.78
2023-05-10T11:56:18.467Z,15.88
2023-05-10T11:58:45.157Z,16.05
2023-05-10T12:01:11.809Z,16.26
2023-05-10T12:03:38.545Z,16.44
2023-05-10T12:06:05.945Z,16.56
2023-05-10T12:08:32.579Z,16.65
2023-05-10T12:11:09.574Z,16.51
2023-05-10T12:13:41.273Z,16.28
2023-05-10T12:16:34.196Z,16.17
2023-05-10T12:19:01.694Z,15.97
2023-05-10T12:21:29.924Z,15.82
2023-05-10T12:24:01.256Z,15.83
2023-05-10T12:26:28.867Z,15.87
2023-05-10T12:28:55.964Z,15.86
2023-05-10T12:31:22.807Z,15.83
2023-05-10T12:33:50.492Z,15.79
2023-05-10T12:36:17.469Z,15.84
2023-05-10T12:38:45.478Z,16.02
2023-05-10T12:41:13.644Z,16.22
2023-05-10T12:43:40.779Z,16.34
2023-05-10T12:46:12.255Z,16.45
2023-05-10T12:48:39.533Z,16.45
2023-05-10T12:51:06.801Z,16.39
2023-05-10T12:53:33.503Z,16.40
2023-05-10T12:56:00.179Z,16.38
2023-05-10T12:58:34.855Z,16.36
2023-05-10T13:01:03.298Z,16.43
2023-05-10T13:03:30.100Z,16.44
2023-05-10T13:05:56.807Z,16.55
2023-05-10T13:08:23.496Z,16.74
2023-05-10T13:10:50.170Z,16.82
2023-05-10T13:15:33.047Z,16.94
2023-05-10T13:17:59.753Z,16.85
2023-05-10T13:20:26.544Z,16.74
2023-05-10T13:22:53.184Z,16.64
2023-05-10T13:25:19.824Z,16.50
2023-05-10T13:27:46.667Z,16.29
2023-05-10T13:30:13.584Z,16.11
2023-05-10T13:32:40.703Z,15.97
2023-05-10T13:35:08.015Z,15.84
2023-05-10T13:37:38.213Z,15.78
2023-05-10T13:40:05.995Z,15.73
2023-05-10T13:42:34.561Z,15.60
2023-05-10T13:45:02.805Z,15.40
2023-05-10T13:47:29.534Z,15.25
2023-05-10T13:49:56.379Z,15.09
2023-05-10T13:52:22.998Z,14.95
2023-05-10T13:54:49.741Z,14.84
2023-05-10T13:57:17.911Z,14.75
2023-05-10T13:59:44.858Z,14.63
2023-05-10T14:02:13.597Z,14.58
2023-05-10T14:04:40.711Z,14.53
2023-05-10T14:07:07.639Z,14.48
2023-05-10T14:09:34.574Z,14.44
2023-05-10T14:12:01.427Z,14.44
2023-05-10T14:14:30.199Z,14.41
2023-05-10T14:16:57.324Z,14.35
2023-05-10T14:19:24.107Z,14.31
2023-05-10T14:21:50.837Z,14.31
2023-05-10T14:24:17.477Z,14.34
2023-05-10T14:26:44.076Z,14.35
2023-05-10T14:29:12.461Z,14.38
2023-05-10T14:31:39.770Z,14.39
2023-05-10T14:34:06.835Z,14.44
2023-05-10T14:36:33.665Z,14.53
2023-05-10T14:39:00.751Z,14.57
2023-05-10T14:41:27.405Z,14.61
2023-05-10T14:43:54.128Z,14.64
2023-05-10T14:46:20.893Z,14.68
2023-05-10T14:48:47.628Z,14.72
2023-05-10T14:51:14.547Z,14.74
2023-05-10T14:53:41.457Z,14.77
2023-05-10T14:56:08.668Z,14.79
2023-05-10T14:58:35.529Z,14.82
2023-05-10T15:01:02.456Z,14.83
2023-05-10T15:03:29.959Z,14.77
2023-05-10T15:05:58.805Z,14.70
2023-05-10T15:08:25.846Z,14.62
2023-05-10T15:10:52.905Z,14.57
2023-05-10T15:13:19.764Z,14.51
2023-05-10T15:15:46.613Z,14.46
2023-05-10T15:18:13.412Z,14.39
2023-05-10T15:20:40.160Z,14.35
2023-05-10T15:23:06.784Z,14.30
2023-05-10T15:25:35.960Z,14.23
2023-05-10T15:28:03.788Z,14.17
2023-05-10T15:30:30.663Z,14.16
2023-05-10T15:32:57.703Z,14.16
2023-05-10T15:35:24.584Z,14.15
2023-05-10T15:37:51.544Z,14.16
2023-05-10T15:40:18.693Z,14.16
2023-05-10T15:42:45.490Z,14.17
2023-05-10T15:45:12.566Z,14.20
2023-05-10T15:47:40.628Z,14.22
2023-05-10T15:50:08.534Z,14.24
2023-05-10T15:52:36.221Z,14.26
2023-05-10T15:55:04.079Z,14.28
2023-05-10T15:57:30.707Z,14.30
2023-05-10T15:59:57.864Z,14.32
2023-05-10T16:02:24.622Z,14.36
2023-05-10T16:04:51.813Z,14.40
2023-05-10T16:07:18.512Z,14.45
2023-05-10T16:09:45.214Z,14.50
2023-05-10T16:12:11.839Z,14.54
2023-05-10T16:14:38.589Z,14.58
2023-05-10T16:17:06.013Z,14.61
2023-05-10T16:19:32.886Z,14.63
2023-05-10T16:21:59.542Z,14.66
2023-05-10T16:24:26.319Z,14.69
2023-05-10T16:26:52.958Z,14.72
2023-05-10T16:29:19.581Z,14.75
2023-05-10T16:31:46.489Z,14.75
2023-05-10T16:34:13.221Z,14.74
2023-05-10T16:36:39.962Z,14.72
2023-05-10T16:39:06.855Z,14.69
2023-05-10T16:41:34.570Z,14.58
2023-05-10T16:44:02.309Z,14.49
2023-05-10T16:46:29.189Z,14.42
2023-05-10T16:48:56.072Z,14.35
2023-05-10T16:51:23.482Z,14.27
2023-05-10T16:53:50.284Z,14.22
2023-05-10T16:56:21.844Z,14.19
2023-05-10T16:58:51.730Z,14.17
2023-05-10T17:01:18.389Z,14.14
2023-05-10T17:03:45.392Z,14.09
2023-05-10T17:06:12.256Z,14.04
2023-05-10T17:08:39.152Z,13.98
2023-05-10T17:11:06.078Z,13.90
2023-05-10T17:13:32.731Z,13.82
2023-05-10T17:16:03.530Z,13.73
2023-05-10T17:18:30.757Z,13.64
2023-05-10T17:20:57.457Z,13.55
2023-05-10T17:23:24.104Z,13.46
2023-05-10T17:25:50.956Z,13.36
2023-05-10T17:28:17.609Z,13.27
2023-05-10T17:30:44.727Z,13.18
2023-05-10T17:33:11.492Z,13.07
2023-05-10T17:35:38.145Z,12.98
2023-05-10T17:38:04.810Z,12.89
2023-05-10T17:40:32.182Z,12.78
2023-05-10T17:42:58.809Z,12.67
2023-05-10T17:45:26.368Z,12.56
2023-05-10T17:47:53.274Z,12.44
2023-05-10T17:50:20.132Z,12.32
2023-05-10T17:52:46.960Z,12.18
2023-05-10T17:55:13.623Z,12.04
2023-05-10T17:57:40.500Z,11.91
2023-05-10T18:00:08.839Z,11.77
2023-05-10T18:02:38.568Z,11.63
2023-05-10T18:05:06.030Z,11.48
2023-05-10T18:07:32.860Z,11.31
2023-05-10T18:10:01.077Z,11.16
2023-05-10T18:12:27.867Z,11.01
2023-05-10T18:14:54.535Z,10.86
2023-05-10T18:17:21.201Z,10.71
2023-05-10T18:19:47.800Z,10.57
2023-05-10T18:22:14.459Z,10.42
2023-05-10T18:24:41.287Z,10.28
2023-05-10T18:27:09.009Z,10.12
2023-05-10T18:29:36.389Z,9.97
2023-05-10T18:32:03.065Z,9.81
2023-05-10T18:34:29.807Z,9.67
2023-05-10T18:36:56.665Z,9.53
2023-05-10T18:39:24.323Z,9.38
2023-05-10T18:41:51.014Z,9.25
2023-05-10T18:44:18.960Z,9.12
2023-05-10T18:46:46.360Z,8.99
2023-05-10T18:49:13.359Z,8.85
2023-05-10T18:51:40.256Z,8.71
2023-05-10T18:54:07.423Z,8.57
2023-05-10T18:56:34.168Z,8.44
2023-05-10T18:59:00.856Z,8.32
2023-05-10T19:01:27.686Z,8.19
2023-05-10T19:03:54.327Z,8.08
2023-05-10T19:06:21.000Z,7.97
2023-05-10T19:08:47.634Z,7.85
2023-05-10T19:11:14.340Z,7.75
2023-05-10T19:13:41.051Z,7.66
2023-05-10T19:16:14.314Z,7.54
2023-05-10T19:18:42.340Z,7.43
2023-05-10T19:21:11.017Z,7.30
2023-05-10T19:23:40.042Z,7.17
2023-05-10T19:26:06.693Z,7.06
2023-05-10T19:28:35.054Z,6.97
2023-05-10T19:31:01.965Z,6.88
2023-05-10T19:33:28.887Z,6.80
2023-05-10T19:35:55.788Z,6.71
2023-05-10T19:38:23.135Z,6.62
2023-05-10T19:40:50.930Z,6.53
2023-05-10T19:43:18.274Z,6.45
2023-05-10T19:45:45.089Z,6.37
2023-05-10T19:48:12.405Z,6.30
2023-05-10T19:50:39.192Z,6.22
2023-05-10T19:53:06.080Z,6.15
2023-05-10T19:55:32.844Z,6.08
2023-05-10T19:58:02.028Z,6.00
2023-05-10T20:00:28.909Z,5.92
2023-05-10T20:02:56.000Z,5.86
2023-05-10T20:05:22.729Z,5.77
2023-05-10T20:07:49.796Z,5.71
2023-05-10T20:10:17.429Z,5.62
2023-05-10T20:12:53.975Z,5.54
2023-05-10T20:15:21.859Z,5.46
2023-05-10T20:17:49.387Z,5.37
2023-05-10T20:20:17.001Z,5.30
2023-05-10T20:22:44.348Z,5.25
2023-05-10T20:25:11.185Z,5.19
2023-05-10T20:27:38.053Z,5.12
2023-05-10T20:30:05.716Z,5.07
2023-05-10T20:32:32.586Z,5.00
2023-05-10T20:34:59.227Z,4.93
2023-05-10T20:37:27.488Z,4.88
2023-05-10T20:39:54.729Z,4.82
2023-05-10T20:42:21.717Z,4.77
2023-05-10T20:44:48.382Z,4.72
2023-05-10T20:47:15.395Z,4.68
2023-05-10T20:49:42.711Z,4.63
2023-05-10T20:52:09.500Z,4.59
2023-05-10T20:54:36.098Z,4.55
2023-05-10T20:57:02.766Z,4.51
2023-05-10T20:59:29.546Z,4.47
2023-05-10T21:01:59.572Z,4.44
2023-05-10T21:04:26.375Z,4.39
2023-05-10T21:06:53.454Z,4.35
2023-05-10T21:09:20.103Z,4.30
2023-05-10T21:11:46.690Z,4.25
2023-05-10T21:14:13.341Z,4.21
2023-05-10T21:16:40.153Z,4.17
2023-05-10T21:19:09.925Z,4.13
2023-05-10T21:21:36.677Z,4.08
2023-05-10T21:24:03.608Z,4.04
2023-05-10T21:26:30.586Z,3.98
2023-05-10T21:28:58.262Z,3.94
2023-05-10T21:31:25.129Z,3.88
2023-05-10T21:33:51.859Z,3.83
2023-05-10T21:36:18.550Z,3.79
2023-05-10T21:38:45.308Z,3.76
2023-05-10T21:41:12.324Z,3.73
2023-05-10T21:43:38.948Z,3.70
2023-05-10T21:46:05.613Z,3.64
2023-05-10T21:48:32.451Z,3.60
2023-05-10T21:50:59.194Z,3.55
2023-05-10T21:53:25.792Z,3.50
2023-05-10T21:55:52.463Z,3.47
2023-05-10T21:58:19.091Z,3.44
2023-05-10T22:00:45.731Z,3.40
2023-05-10T22:03:12.452Z,3.34
2023-05-10T22:05:39.431Z,3.29
2023-05-10T22:08:06.710Z,3.25
2023-05-10T22:10:33.895Z,3.21
2023-05-10T22:13:00.681Z,3.17
2023-05-10T22:15:28.329Z,3.13
2023-05-10T22:17:54.938Z,3.10
2023-05-10T22:20:22.156Z,3.06
2023-05-10T22:22:49.004Z,3.00
2023-05-10T22:25:15.639Z,2.97
2023-05-10T22:27:42.326Z,2.94
2023-05-10T22:30:09.554Z,2.90
2023-05-10T22:32:36.256Z,2.88
2023-05-10T22:35:03.522Z,2.85
2023-05-10T22:37:30.310Z,2.82
2023-05-10T22:39:57.153Z,2.79
2023-05-10T22:42:23.794Z,2.76
2023-05-10T22:44:50.633Z,2.73
2023-05-10T22:47:17.277Z,2.70
2023-05-10T22:49:43.925Z,2.68
2023-05-10T22:52:10.884Z,2.65
2023-05-10T22:54:37.503Z,2.63
2023-05-10T22:57:04.585Z,2.61
2023-05-10T22:59:31.526Z,2.59
2023-05-10T23:01:58.319Z,2.58
2023-05-10T23:04:25.153Z,2.55
2023-05-10T23:06:51.917Z,2.52
2023-05-10T23:09:18.820Z,2.50
2023-05-10T23:11:45.452Z,2.47
2023-05-10T23:14:12.132Z,2.44
2023-05-10T23:16:39.070Z,2.42
2023-05-10T23:19:06.798Z,2.39
2023-05-10T23:21:34.584Z,2.34
2023-05-10T23:24:01.245Z,2.32
2023-05-10T23:26:27.927Z,2.29
2023-05-10T23:28:54.532Z,2.26
2023-05-10T23:31:21.189Z,2.23
2023-05-10T23:33:47.876Z,2.21
2023-05-10T23:36:14.541Z,2.18
2023-05-10T23:38:41.408Z,2.14
2023-05-10T23:41:08.022Z,2.11
2023-05-10T23:43:34.648Z,2.06
2023-05-10T23:46:01.728Z,2.05
2023-05-10T23:48:28.625Z,2.03
2023-05-10T23:50:55.215Z,1.99
2023-05-10T23:53:21.844Z,1.96
2023-05-10T23:55:48.678Z,1.90
2023-05-10T23:58:15.370Z,1.88
